sensor_id;sensor_type;location;lat;lon;timestamp;P1;durP1;ratioP1;P2;durP2;ratioP2
7645;SDS011;3864;48.180;14.178;2023-11-21T00:02:26;7.50;;;4.47;;
7645;SDS011;3864;48.180;14.178;2023-11-21T00:04:53;10.65;;;5.15;;
7645;SDS011;3864;48.180;14.178;2023-11-21T00:07:20;10.73;;;5.93;;
7645;SDS011;3864;48.180;14.178;2023-11-21T00:09:49;8.20;;;5.50;;
7645;SDS011;3864;48.180;14.178;2023-11-21T00:12:16;9.52;;;5.47;;
7645;SDS011;3864;48.180;14.178;2023-11-21T00:17:10;11.60;;;4.70;;
7645;SDS011;3864;48.180;14.178;2023-11-21T00:19:37;10.32;;;5.68;;
7645;SDS011;3864;48.180;14.178;2023-11-21T00:24:31;13.43;;;5.43;;
7645;SDS011;3864;48.180;14.178;2023-11-21T00:27:00;10.32;;;5.93;;
7645;SDS011;3864;48.180;14.178;2023-11-21T00:29:27;11.38;;;5.85;;
7645;SDS011;3864;48.180;14.178;2023-11-21T00:31:54;9.02;;;5.82;;
7645;SDS011;3864;48.180;14.178;2023-11-21T00:34:21;14.43;;;7.00;;
7645;SDS011;3864;48.180;14.178;2023-11-21T00:36:48;9.88;;;6.18;;
7645;SDS011;3864;48.180;14.178;2023-11-21T00:41:42;9.13;;;5.25;;
7645;SDS011;3864;48.180;14.178;2023-11-21T00:44:11;14.60;;;6.28;;
7645;SDS011;3864;48.180;14.178;2023-11-21T00:46:38;9.73;;;6.00;;
7645;SDS011;3864;48.180;14.178;2023-11-21T00:51:32;8.73;;;5.05;;
7645;SDS011;3864;48.180;14.178;2023-11-21T00:54:00;12.90;;;6.18;;
7645;SDS011;3864;48.180;14.178;2023-11-21T00:58:54;10.95;;;5.30;;
7645;SDS011;3864;48.180;14.178;2023-11-21T01:01:23;9.40;;;5.63;;
7645;SDS011;3864;48.180;14.178;2023-11-21T01:03:50;8.82;;;5.18;;
7645;SDS011;3864;48.180;14.178;2023-11-21T01:08:44;10.90;;;5.65;;
7645;SDS011;3864;48.180;14.178;2023-11-21T01:11:12;12.60;;;6.03;;
7645;SDS011;3864;48.180;14.178;2023-11-21T01:13:39;9.52;;;5.43;;
7645;SDS011;3864;48.180;14.178;2023-11-21T01:16:07;9.80;;;5.05;;
7645;SDS011;3864;48.180;14.178;2023-11-21T01:18:37;8.82;;;4.60;;
7645;SDS011;3864;48.180;14.178;2023-11-21T01:21:04;9.35;;;4.70;;
7645;SDS011;3864;48.180;14.178;2023-11-21T01:23:32;10.90;;;4.85;;
7645;SDS011;3864;48.180;14.178;2023-11-21T01:26:00;8.13;;;5.38;;
7645;SDS011;3864;48.180;14.178;2023-11-21T01:28:27;9.45;;;4.88;;
7645;SDS011;3864;48.180;14.178;2023-11-21T01:30:54;6.82;;;4.80;;
7645;SDS011;3864;48.180;14.178;2023-11-21T01:33:21;9.50;;;5.57;;
7645;SDS011;3864;48.180;14.178;2023-11-21T01:35:51;11.88;;;5.63;;
7645;SDS011;3864;48.180;14.178;2023-11-21T01:38:20;16.90;;;6.53;;
7645;SDS011;3864;48.180;14.178;2023-11-21T01:40:47;9.88;;;5.40;;
7645;SDS011;3864;48.180;14.178;2023-11-21T01:43:14;8.75;;;5.30;;
7645;SDS011;3864;48.180;14.178;2023-11-21T01:45:41;10.30;;;4.68;;
7645;SDS011;3864;48.180;14.178;2023-11-21T01:48:10;8.82;;;4.70;;
7645;SDS011;3864;48.180;14.178;2023-11-21T01:50:38;10.13;;;6.05;;
7645;SDS011;3864;48.180;14.178;2023-11-21T01:53:07;10.15;;;4.82;;
7645;SDS011;3864;48.180;14.178;2023-11-21T01:55:34;7.82;;;4.25;;
7645;SDS011;3864;48.180;14.178;2023-11-21T01:58:01;7.00;;;4.40;;
7645;SDS011;3864;48.180;14.178;2023-11-21T02:00:28;13.13;;;5.60;;
7645;SDS011;3864;48.180;14.178;2023-11-21T02:02:56;11.48;;;5.45;;
7645;SDS011;3864;48.180;14.178;2023-11-21T02:05:24;11.13;;;5.57;;
7645;SDS011;3864;48.180;14.178;2023-11-21T02:07:51;13.20;;;6.03;;
7645;SDS011;3864;48.180;14.178;2023-11-21T02:10:20;10.40;;;6.05;;
7645;SDS011;3864;48.180;14.178;2023-11-21T02:12:48;7.65;;;4.72;;
7645;SDS011;3864;48.180;14.178;2023-11-21T02:15:16;10.00;;;5.65;;
7645;SDS011;3864;48.180;14.178;2023-11-21T02:17:45;9.65;;;5.55;;
7645;SDS011;3864;48.180;14.178;2023-11-21T02:20:16;10.07;;;4.88;;
7645;SDS011;3864;48.180;14.178;2023-11-21T02:22:49;11.52;;;5.05;;
7645;SDS011;3864;48.180;14.178;2023-11-21T02:27:44;7.22;;;3.92;;
7645;SDS011;3864;48.180;14.178;2023-11-21T02:30:13;9.30;;;4.28;;
7645;SDS011;3864;48.180;14.178;2023-11-21T02:32:41;9.90;;;4.22;;
7645;SDS011;3864;48.180;14.178;2023-11-21T02:35:09;7.75;;;4.07;;
7645;SDS011;3864;48.180;14.178;2023-11-21T02:37:37;6.22;;;3.85;;
7645;SDS011;3864;48.180;14.178;2023-11-21T02:40:09;7.65;;;4.05;;
7645;SDS011;3864;48.180;14.178;2023-11-21T02:42:37;6.47;;;3.70;;
7645;SDS011;3864;48.180;14.178;2023-11-21T02:45:06;7.18;;;4.03;;
7645;SDS011;3864;48.180;14.178;2023-11-21T02:47:34;11.27;;;4.65;;
7645;SDS011;3864;48.180;14.178;2023-11-21T02:52:28;9.35;;;4.53;;
7645;SDS011;3864;48.180;14.178;2023-11-21T02:54:58;11.95;;;4.93;;
7645;SDS011;3864;48.180;14.178;2023-11-21T02:57:26;9.98;;;5.20;;
7645;SDS011;3864;48.180;14.178;2023-11-21T02:59:53;9.07;;;4.78;;
7645;SDS011;3864;48.180;14.178;2023-11-21T03:02:21;6.45;;;4.43;;
7645;SDS011;3864;48.180;14.178;2023-11-21T03:04:48;9.20;;;4.38;;
7645;SDS011;3864;48.180;14.178;2023-11-21T03:07:15;8.50;;;4.57;;
7645;SDS011;3864;48.180;14.178;2023-11-21T03:09:44;9.20;;;4.05;;
7645;SDS011;3864;48.180;14.178;2023-11-21T03:12:11;8.85;;;4.43;;
7645;SDS011;3864;48.180;14.178;2023-11-21T03:17:06;6.57;;;4.18;;
7645;SDS011;3864;48.180;14.178;2023-11-21T03:19:33;10.43;;;5.38;;
7645;SDS011;3864;48.180;14.178;2023-11-21T03:24:29;8.35;;;4.82;;
7645;SDS011;3864;48.180;14.178;2023-11-21T03:26:56;10.18;;;5.25;;
7645;SDS011;3864;48.180;14.178;2023-11-21T03:31:51;9.27;;;5.18;;
7645;SDS011;3864;48.180;14.178;2023-11-21T03:34:22;8.20;;;5.18;;
7645;SDS011;3864;48.180;14.178;2023-11-21T03:36:50;9.77;;;4.90;;
7645;SDS011;3864;48.180;14.178;2023-11-21T03:39:18;8.15;;;4.38;;
7645;SDS011;3864;48.180;14.178;2023-11-21T03:41:46;7.38;;;4.43;;
7645;SDS011;3864;48.180;14.178;2023-11-21T03:44:13;9.48;;;4.75;;
7645;SDS011;3864;48.180;14.178;2023-11-21T03:46:40;9.10;;;5.47;;
7645;SDS011;3864;48.180;14.178;2023-11-21T03:49:09;8.48;;;4.80;;
7645;SDS011;3864;48.180;14.178;2023-11-21T03:51:37;9.05;;;5.00;;
7645;SDS011;3864;48.180;14.178;2023-11-21T03:56:30;6.95;;;3.95;;
7645;SDS011;3864;48.180;14.178;2023-11-21T03:58:57;6.68;;;4.60;;
7645;SDS011;3864;48.180;14.178;2023-11-21T04:03:51;8.38;;;4.30;;
7645;SDS011;3864;48.180;14.178;2023-11-21T04:08:46;10.35;;;5.35;;
7645;SDS011;3864;48.180;14.178;2023-11-21T04:13:41;9.32;;;5.03;;
7645;SDS011;3864;48.180;14.178;2023-11-21T04:16:08;9.18;;;5.22;;
7645;SDS011;3864;48.180;14.178;2023-11-21T04:18:36;10.95;;;6.05;;
7645;SDS011;3864;48.180;14.178;2023-11-21T04:21:03;10.90;;;6.22;;
7645;SDS011;3864;48.180;14.178;2023-11-21T04:23:32;13.10;;;6.82;;
7645;SDS011;3864;48.180;14.178;2023-11-21T04:26:00;11.63;;;6.93;;
7645;SDS011;3864;48.180;14.178;2023-11-21T04:28:27;13.13;;;6.95;;
7645;SDS011;3864;48.180;14.178;2023-11-21T04:30:54;12.60;;;6.63;;
7645;SDS011;3864;48.180;14.178;2023-11-21T04:35:47;9.57;;;5.53;;
7645;SDS011;3864;48.180;14.178;2023-11-21T04:40:43;10.65;;;5.72;;
7645;SDS011;3864;48.180;14.178;2023-11-21T04:43:10;11.00;;;5.00;;
7645;SDS011;3864;48.180;14.178;2023-11-21T04:45:38;9.32;;;4.68;;
7645;SDS011;3864;48.180;14.178;2023-11-21T04:48:06;11.10;;;5.00;;
7645;SDS011;3864;48.180;14.178;2023-11-21T04:50:33;8.27;;;4.93;;
7645;SDS011;3864;48.180;14.178;2023-11-21T04:53:00;7.03;;;4.47;;
7645;SDS011;3864;48.180;14.178;2023-11-21T04:57:55;10.98;;;4.10;;
7645;SDS011;3864;48.180;14.178;2023-11-21T05:00:22;9.57;;;4.22;;
7645;SDS011;3864;48.180;14.178;2023-11-21T05:05:17;13.15;;;4.75;;
7645;SDS011;3864;48.180;14.178;2023-11-21T05:10:11;12.55;;;4.68;;
7645;SDS011;3864;48.180;14.178;2023-11-21T05:12:40;7.25;;;4.00;;
7645;SDS011;3864;48.180;14.178;2023-11-21T05:15:10;10.95;;;4.65;;
7645;SDS011;3864;48.180;14.178;2023-11-21T05:17:40;6.45;;;4.50;;
7645;SDS011;3864;48.180;14.178;2023-11-21T05:20:09;9.85;;;4.35;;
7645;SDS011;3864;48.180;14.178;2023-11-21T05:22:38;10.27;;;5.15;;
7645;SDS011;3864;48.180;14.178;2023-11-21T05:25:05;11.45;;;4.82;;
7645;SDS011;3864;48.180;14.178;2023-11-21T05:27:34;9.93;;;5.05;;
7645;SDS011;3864;48.180;14.178;2023-11-21T05:30:01;8.90;;;5.30;;
7645;SDS011;3864;48.180;14.178;2023-11-21T05:32:32;10.65;;;4.55;;
7645;SDS011;3864;48.180;14.178;2023-11-21T05:34:59;9.93;;;4.80;;
7645;SDS011;3864;48.180;14.178;2023-11-21T05:37:26;9.27;;;5.00;;
7645;SDS011;3864;48.180;14.178;2023-11-21T05:39:53;9.48;;;4.57;;
7645;SDS011;3864;48.180;14.178;2023-11-21T05:42:21;9.45;;;4.85;;
7645;SDS011;3864;48.180;14.178;2023-11-21T05:44:48;7.28;;;3.97;;
7645;SDS011;3864;48.180;14.178;2023-11-21T05:47:16;10.05;;;4.68;;
7645;SDS011;3864;48.180;14.178;2023-11-21T05:49:44;10.95;;;4.78;;
7645;SDS011;3864;48.180;14.178;2023-11-21T05:52:15;10.13;;;4.70;;
7645;SDS011;3864;48.180;14.178;2023-11-21T05:57:09;8.30;;;4.28;;
7645;SDS011;3864;48.180;14.178;2023-11-21T05:59:36;9.82;;;4.40;;
7645;SDS011;3864;48.180;14.178;2023-11-21T06:04:30;10.35;;;4.05;;
7645;SDS011;3864;48.180;14.178;2023-11-21T06:07:00;7.78;;;3.53;;
7645;SDS011;3864;48.180;14.178;2023-11-21T06:09:27;8.77;;;3.70;;
7645;SDS011;3864;48.180;14.178;2023-11-21T06:14:21;6.35;;;3.55;;
7645;SDS011;3864;48.180;14.178;2023-11-21T06:16:48;8.18;;;3.75;;
7645;SDS011;3864;48.180;14.178;2023-11-21T06:19:16;9.25;;;3.90;;
7645;SDS011;3864;48.180;14.178;2023-11-21T06:21:45;9.88;;;3.88;;
7645;SDS011;3864;48.180;14.178;2023-11-21T06:24:14;8.32;;;3.50;;
7645;SDS011;3864;48.180;14.178;2023-11-21T06:26:42;9.10;;;3.42;;
7645;SDS011;3864;48.180;14.178;2023-11-21T06:29:09;8.32;;;4.30;;
7645;SDS011;3864;48.180;14.178;2023-11-21T06:31:37;9.02;;;4.20;;
7645;SDS011;3864;48.180;14.178;2023-11-21T06:34:05;7.00;;;3.47;;
7645;SDS011;3864;48.180;14.178;2023-11-21T06:36:34;5.57;;;3.85;;
7645;SDS011;3864;48.180;14.178;2023-11-21T06:39:01;9.27;;;4.57;;
7645;SDS011;3864;48.180;14.178;2023-11-21T06:41:30;8.63;;;3.50;;
7645;SDS011;3864;48.180;14.178;2023-11-21T06:43:57;10.77;;;4.25;;
7645;SDS011;3864;48.180;14.178;2023-11-21T06:48:51;7.55;;;3.97;;
7645;SDS011;3864;48.180;14.178;2023-11-21T06:51:18;10.27;;;3.35;;
7645;SDS011;3864;48.180;14.178;2023-11-21T06:53:45;9.68;;;3.83;;
7645;SDS011;3864;48.180;14.178;2023-11-21T06:56:15;10.43;;;4.32;;
7645;SDS011;3864;48.180;14.178;2023-11-21T06:58:44;10.63;;;4.22;;
7645;SDS011;3864;48.180;14.178;2023-11-21T07:01:12;8.93;;;3.65;;
7645;SDS011;3864;48.180;14.178;2023-11-21T07:03:40;12.18;;;4.10;;
7645;SDS011;3864;48.180;14.178;2023-11-21T07:06:07;11.00;;;3.50;;
7645;SDS011;3864;48.180;14.178;2023-11-21T07:08:35;10.45;;;3.75;;
7645;SDS011;3864;48.180;14.178;2023-11-21T07:11:02;13.32;;;3.85;;
7645;SDS011;3864;48.180;14.178;2023-11-21T07:13:29;8.10;;;3.60;;
7645;SDS011;3864;48.180;14.178;2023-11-21T07:15:58;8.57;;;3.60;;
7645;SDS011;3864;48.180;14.178;2023-11-21T07:18:26;9.52;;;3.90;;
7645;SDS011;3864;48.180;14.178;2023-11-21T07:20:53;10.55;;;3.42;;
7645;SDS011;3864;48.180;14.178;2023-11-21T07:23:20;9.90;;;4.38;;
7645;SDS011;3864;48.180;14.178;2023-11-21T07:25:48;11.27;;;4.60;;
7645;SDS011;3864;48.180;14.178;2023-11-21T07:28:15;9.98;;;3.92;;
7645;SDS011;3864;48.180;14.178;2023-11-21T07:30:42;7.40;;;3.58;;
7645;SDS011;3864;48.180;14.178;2023-11-21T07:33:10;8.25;;;3.80;;
7645;SDS011;3864;48.180;14.178;2023-11-21T07:35:38;7.18;;;4.43;;
7645;SDS011;3864;48.180;14.178;2023-11-21T07:38:04;6.40;;;3.88;;
7645;SDS011;3864;48.180;14.178;2023-11-21T07:40:31;9.85;;;3.88;;
7645;SDS011;3864;48.180;14.178;2023-11-21T07:42:58;8.88;;;3.90;;
7645;SDS011;3864;48.180;14.178;2023-11-21T07:45:25;8.05;;;3.67;;
7645;SDS011;3864;48.180;14.178;2023-11-21T07:47:53;9.68;;;3.80;;
7645;SDS011;3864;48.180;14.178;2023-11-21T07:50:22;8.63;;;3.90;;
7645;SDS011;3864;48.180;14.178;2023-11-21T07:52:49;13.00;;;4.30;;
7645;SDS011;3864;48.180;14.178;2023-11-21T07:55:16;6.50;;;3.60;;
7645;SDS011;3864;48.180;14.178;2023-11-21T07:57:44;6.57;;;3.83;;
7645;SDS011;3864;48.180;14.178;2023-11-21T08:00:11;7.00;;;3.60;;
7645;SDS011;3864;48.180;14.178;2023-11-21T08:02:40;8.05;;;3.83;;
7645;SDS011;3864;48.180;14.178;2023-11-21T08:05:11;8.38;;;4.05;;
7645;SDS011;3864;48.180;14.178;2023-11-21T08:07:39;8.35;;;3.97;;
7645;SDS011;3864;48.180;14.178;2023-11-21T08:10:07;7.72;;;5.03;;
7645;SDS011;3864;48.180;14.178;2023-11-21T08:12:36;9.98;;;7.32;;
7645;SDS011;3864;48.180;14.178;2023-11-21T08:15:04;12.50;;;5.90;;
7645;SDS011;3864;48.180;14.178;2023-11-21T08:17:32;8.45;;;5.45;;
7645;SDS011;3864;48.180;14.178;2023-11-21T08:20:00;9.45;;;5.60;;
7645;SDS011;3864;48.180;14.178;2023-11-21T08:22:28;10.70;;;5.35;;
7645;SDS011;3864;48.180;14.178;2023-11-21T08:24:57;8.05;;;4.85;;
7645;SDS011;3864;48.180;14.178;2023-11-21T08:27:24;9.45;;;5.47;;
7645;SDS011;3864;48.180;14.178;2023-11-21T08:29:51;11.60;;;5.88;;
7645;SDS011;3864;48.180;14.178;2023-11-21T08:32:19;9.88;;;5.22;;
7645;SDS011;3864;48.180;14.178;2023-11-21T08:34:46;9.20;;;4.88;;
7645;SDS011;3864;48.180;14.178;2023-11-21T08:37:15;12.60;;;6.45;;
7645;SDS011;3864;48.180;14.178;2023-11-21T08:39:43;12.52;;;6.35;;
7645;SDS011;3864;48.180;14.178;2023-11-21T08:42:11;13.73;;;6.07;;
7645;SDS011;3864;48.180;14.178;2023-11-21T08:44:38;14.40;;;6.93;;
7645;SDS011;3864;48.180;14.178;2023-11-21T08:47:05;9.23;;;5.95;;
7645;SDS011;3864;48.180;14.178;2023-11-21T08:49:32;13.80;;;6.65;;
7645;SDS011;3864;48.180;14.178;2023-11-21T08:51:59;13.10;;;6.70;;
7645;SDS011;3864;48.180;14.178;2023-11-21T08:54:26;10.60;;;7.72;;
7645;SDS011;3864;48.180;14.178;2023-11-21T08:56:53;11.80;;;6.82;;
7645;SDS011;3864;48.180;14.178;2023-11-21T08:59:24;12.88;;;5.72;;
7645;SDS011;3864;48.180;14.178;2023-11-21T09:01:52;12.18;;;6.57;;
7645;SDS011;3864;48.180;14.178;2023-11-21T09:04:19;9.80;;;5.85;;
7645;SDS011;3864;48.180;14.178;2023-11-21T09:06:46;11.73;;;6.40;;
7645;SDS011;3864;48.180;14.178;2023-11-21T09:09:13;11.32;;;6.60;;
7645;SDS011;3864;48.180;14.178;2023-11-21T09:11:40;9.05;;;5.25;;
7645;SDS011;3864;48.180;14.178;2023-11-21T09:14:09;7.70;;;4.63;;
7645;SDS011;3864;48.180;14.178;2023-11-21T09:16:39;10.90;;;4.63;;
7645;SDS011;3864;48.180;14.178;2023-11-21T09:19:08;12.52;;;4.40;;
7645;SDS011;3864;48.180;14.178;2023-11-21T09:21:35;12.18;;;5.00;;
7645;SDS011;3864;48.180;14.178;2023-11-21T09:24:02;9.27;;;4.88;;
7645;SDS011;3864;48.180;14.178;2023-11-21T09:26:29;8.77;;;4.68;;
7645;SDS011;3864;48.180;14.178;2023-11-21T09:28:56;6.85;;;4.32;;
7645;SDS011;3864;48.180;14.178;2023-11-21T09:31:23;8.38;;;4.97;;
7645;SDS011;3864;48.180;14.178;2023-11-21T09:33:54;6.78;;;3.83;;
7645;SDS011;3864;48.180;14.178;2023-11-21T09:36:22;8.82;;;5.05;;
7645;SDS011;3864;48.180;14.178;2023-11-21T09:38:52;7.43;;;4.65;;
7645;SDS011;3864;48.180;14.178;2023-11-21T09:41:21;13.50;;;8.50;;
7645;SDS011;3864;48.180;14.178;2023-11-21T09:44:00;12.02;;;6.90;;
7645;SDS011;3864;48.180;14.178;2023-11-21T09:46:32;7.63;;;5.22;;
7645;SDS011;3864;48.180;14.178;2023-11-21T09:49:06;13.50;;;7.70;;
7645;SDS011;3864;48.180;14.178;2023-11-21T09:51:38;8.00;;;5.00;;
7645;SDS011;3864;48.180;14.178;2023-11-21T09:54:08;11.23;;;4.72;;
7645;SDS011;3864;48.180;14.178;2023-11-21T09:56:37;8.85;;;4.93;;
7645;SDS011;3864;48.180;14.178;2023-11-21T09:59:04;9.48;;;4.60;;
7645;SDS011;3864;48.180;14.178;2023-11-21T10:01:35;7.13;;;3.70;;
7645;SDS011;3864;48.180;14.178;2023-11-21T10:04:06;7.88;;;3.70;;
7645;SDS011;3864;48.180;14.178;2023-11-21T10:06:37;6.22;;;3.17;;
7645;SDS011;3864;48.180;14.178;2023-11-21T10:09:05;5.45;;;3.10;;
7645;SDS011;3864;48.180;14.178;2023-11-21T10:11:36;5.03;;;3.42;;
7645;SDS011;3864;48.180;14.178;2023-11-21T10:14:06;5.25;;;3.00;;
7645;SDS011;3864;48.180;14.178;2023-11-21T10:16:37;5.30;;;2.80;;
7645;SDS011;3864;48.180;14.178;2023-11-21T10:19:07;6.30;;;2.40;;
7645;SDS011;3864;48.180;14.178;2023-11-21T10:21:38;6.18;;;2.55;;
7645;SDS011;3864;48.180;14.178;2023-11-21T10:24:06;6.75;;;2.88;;
7645;SDS011;3864;48.180;14.178;2023-11-21T10:26:33;5.78;;;3.50;;
7645;SDS011;3864;48.180;14.178;2023-11-21T10:29:02;5.25;;;3.42;;
7645;SDS011;3864;48.180;14.178;2023-11-21T10:31:29;7.05;;;2.78;;
7645;SDS011;3864;48.180;14.178;2023-11-21T10:34:11;4.28;;;2.50;;
7645;SDS011;3864;48.180;14.178;2023-11-21T10:36:39;5.93;;;2.90;;
7645;SDS011;3864;48.180;14.178;2023-11-21T10:39:07;4.70;;;2.80;;
7645;SDS011;3864;48.180;14.178;2023-11-21T10:41:34;4.63;;;3.03;;
7645;SDS011;3864;48.180;14.178;2023-11-21T10:44:01;5.20;;;2.50;;
7645;SDS011;3864;48.180;14.178;2023-11-21T10:46:32;4.43;;;2.70;;
7645;SDS011;3864;48.180;14.178;2023-11-21T10:49:00;5.80;;;3.30;;
7645;SDS011;3864;48.180;14.178;2023-11-21T10:51:29;5.35;;;2.78;;
7645;SDS011;3864;48.180;14.178;2023-11-21T10:53:56;5.55;;;2.78;;
7645;SDS011;3864;48.180;14.178;2023-11-21T10:56:25;3.78;;;2.40;;
7645;SDS011;3864;48.180;14.178;2023-11-21T10:58:55;4.30;;;2.15;;
7645;SDS011;3864;48.180;14.178;2023-11-21T11:01:27;5.15;;;2.13;;
7645;SDS011;3864;48.180;14.178;2023-11-21T11:03:57;3.60;;;2.30;;
7645;SDS011;3864;48.180;14.178;2023-11-21T11:06:25;5.60;;;2.45;;
7645;SDS011;3864;48.180;14.178;2023-11-21T11:08:57;4.63;;;2.10;;
7645;SDS011;3864;48.180;14.178;2023-11-21T11:11:27;4.47;;;2.15;;
7645;SDS011;3864;48.180;14.178;2023-11-21T11:13:56;4.00;;;2.10;;
7645;SDS011;3864;48.180;14.178;2023-11-21T11:16:25;3.65;;;2.28;;
7645;SDS011;3864;48.180;14.178;2023-11-21T11:18:54;6.10;;;2.20;;
7645;SDS011;3864;48.180;14.178;2023-11-21T11:21:25;4.35;;;2.83;;
7645;SDS011;3864;48.180;14.178;2023-11-21T11:24:13;3.72;;;2.17;;
7645;SDS011;3864;48.180;14.178;2023-11-21T11:26:55;3.30;;;1.92;;
7645;SDS011;3864;48.180;14.178;2023-11-21T11:29:30;3.25;;;2.08;;
7645;SDS011;3864;48.180;14.178;2023-11-21T11:32:08;5.07;;;2.40;;
7645;SDS011;3864;48.180;14.178;2023-11-21T11:34:44;3.60;;;2.28;;
7645;SDS011;3864;48.180;14.178;2023-11-21T11:37:17;3.55;;;1.95;;
7645;SDS011;3864;48.180;14.178;2023-11-21T11:39:45;4.97;;;2.20;;
7645;SDS011;3864;48.180;14.178;2023-11-21T11:42:13;3.88;;;2.40;;
7645;SDS011;3864;48.180;14.178;2023-11-21T11:44:47;3.95;;;1.77;;
7645;SDS011;3864;48.180;14.178;2023-11-21T11:47:21;2.97;;;1.88;;
7645;SDS011;3864;48.180;14.178;2023-11-21T11:49:57;4.18;;;2.17;;
7645;SDS011;3864;48.180;14.178;2023-11-21T11:52:33;4.70;;;2.60;;
7645;SDS011;3864;48.180;14.178;2023-11-21T11:55:05;3.88;;;2.22;;
7645;SDS011;3864;48.180;14.178;2023-11-21T11:57:35;3.92;;;2.50;;
7645;SDS011;3864;48.180;14.178;2023-11-21T12:00:16;4.43;;;2.40;;
7645;SDS011;3864;48.180;14.178;2023-11-21T12:02:46;5.45;;;2.40;;
7645;SDS011;3864;48.180;14.178;2023-11-21T12:05:14;4.93;;;2.35;;
7645;SDS011;3864;48.180;14.178;2023-11-21T12:07:48;3.58;;;2.35;;
7645;SDS011;3864;48.180;14.178;2023-11-21T12:10:18;3.60;;;2.25;;
7645;SDS011;3864;48.180;14.178;2023-11-21T12:12:50;4.28;;;2.50;;
7645;SDS011;3864;48.180;14.178;2023-11-21T12:15:18;3.78;;;2.30;;
7645;SDS011;3864;48.180;14.178;2023-11-21T12:17:46;5.15;;;2.25;;
7645;SDS011;3864;48.180;14.178;2023-11-21T12:20:16;4.40;;;2.30;;
7645;SDS011;3864;48.180;14.178;2023-11-21T12:22:45;3.83;;;2.30;;
7645;SDS011;3864;48.180;14.178;2023-11-21T12:25:15;5.55;;;2.20;;
7645;SDS011;3864;48.180;14.178;2023-11-21T12:27:45;3.70;;;2.28;;
7645;SDS011;3864;48.180;14.178;2023-11-21T12:30:14;3.92;;;2.30;;
7645;SDS011;3864;48.180;14.178;2023-11-21T12:32:42;3.88;;;2.40;;
7645;SDS011;3864;48.180;14.178;2023-11-21T12:35:12;3.50;;;2.20;;
7645;SDS011;3864;48.180;14.178;2023-11-21T12:37:39;4.50;;;2.40;;
7645;SDS011;3864;48.180;14.178;2023-11-21T12:40:10;2.95;;;2.30;;
7645;SDS011;3864;48.180;14.178;2023-11-21T12:42:40;3.88;;;2.20;;
7645;SDS011;3864;48.180;14.178;2023-11-21T12:45:09;4.43;;;2.33;;
7645;SDS011;3864;48.180;14.178;2023-11-21T12:47:45;4.38;;;2.55;;
7645;SDS011;3864;48.180;14.178;2023-11-21T12:50:14;4.97;;;2.30;;
7645;SDS011;3864;48.180;14.178;2023-11-21T12:52:41;3.85;;;2.40;;
7645;SDS011;3864;48.180;14.178;2023-11-21T12:55:17;3.38;;;2.50;;
7645;SDS011;3864;48.180;14.178;2023-11-21T12:57:48;4.60;;;2.50;;
7645;SDS011;3864;48.180;14.178;2023-11-21T13:00:19;3.90;;;2.30;;
7645;SDS011;3864;48.180;14.178;2023-11-21T13:02:55;3.63;;;2.40;;
7645;SDS011;3864;48.180;14.178;2023-11-21T13:05:26;3.40;;;1.92;;
7645;SDS011;3864;48.180;14.178;2023-11-21T13:07:55;3.72;;;2.53;;
7645;SDS011;3864;48.180;14.178;2023-11-21T13:10:25;3.60;;;2.28;;
7645;SDS011;3864;48.180;14.178;2023-11-21T13:12:56;3.20;;;2.60;;
7645;SDS011;3864;48.180;14.178;2023-11-21T13:15:25;3.33;;;2.35;;
7645;SDS011;3864;48.180;14.178;2023-11-21T13:17:53;4.30;;;2.97;;
7645;SDS011;3864;48.180;14.178;2023-11-21T13:20:21;5.88;;;2.78;;
7645;SDS011;3864;48.180;14.178;2023-11-21T13:22:49;4.20;;;2.85;;
7645;SDS011;3864;48.180;14.178;2023-11-21T13:25:19;5.63;;;3.20;;
7645;SDS011;3864;48.180;14.178;2023-11-21T13:27:49;4.82;;;3.08;;
7645;SDS011;3864;48.180;14.178;2023-11-21T13:30:16;5.47;;;2.67;;
7645;SDS011;3864;48.180;14.178;2023-11-21T13:32:48;4.80;;;3.13;;
7645;SDS011;3864;48.180;14.178;2023-11-21T13:35:16;4.25;;;3.55;;
7645;SDS011;3864;48.180;14.178;2023-11-21T13:37:49;5.15;;;2.85;;
7645;SDS011;3864;48.180;14.178;2023-11-21T13:40:21;4.53;;;2.78;;
7645;SDS011;3864;48.180;14.178;2023-11-21T13:42:52;6.20;;;2.75;;
7645;SDS011;3864;48.180;14.178;2023-11-21T13:45:23;4.40;;;2.92;;
7645;SDS011;3864;48.180;14.178;2023-11-21T13:47:51;5.15;;;2.47;;
7645;SDS011;3864;48.180;14.178;2023-11-21T13:50:24;4.20;;;2.40;;
7645;SDS011;3864;48.180;14.178;2023-11-21T13:55:24;3.28;;;2.42;;
7645;SDS011;3864;48.180;14.178;2023-11-21T13:57:54;5.07;;;2.33;;
7645;SDS011;3864;48.180;14.178;2023-11-21T14:00:20;4.07;;;2.40;;
7645;SDS011;3864;48.180;14.178;2023-11-21T14:03:19;4.10;;;2.50;;
7645;SDS011;3864;48.180;14.178;2023-11-21T14:05:47;4.78;;;2.47;;
7645;SDS011;3864;48.180;14.178;2023-11-21T14:08:17;3.63;;;2.22;;
7645;SDS011;3864;48.180;14.178;2023-11-21T14:10:46;3.85;;;2.28;;
7645;SDS011;3864;48.180;14.178;2023-11-21T14:13:17;3.42;;;2.30;;
7645;SDS011;3864;48.180;14.178;2023-11-21T14:15:46;8.43;;;2.88;;
7645;SDS011;3864;48.180;14.178;2023-11-21T14:18:16;3.67;;;2.58;;
7645;SDS011;3864;48.180;14.178;2023-11-21T14:20:51;3.90;;;2.20;;
7645;SDS011;3864;48.180;14.178;2023-11-21T14:23:19;3.10;;;2.22;;
7645;SDS011;3864;48.180;14.178;2023-11-21T14:25:46;4.32;;;2.67;;
7645;SDS011;3864;48.180;14.178;2023-11-21T14:28:15;6.05;;;3.00;;
7645;SDS011;3864;48.180;14.178;2023-11-21T14:30:44;4.75;;;2.85;;
7645;SDS011;3864;48.180;14.178;2023-11-21T14:33:11;4.32;;;2.50;;
7645;SDS011;3864;48.180;14.178;2023-11-21T14:35:39;7.00;;;2.80;;
7645;SDS011;3864;48.180;14.178;2023-11-21T14:38:05;5.22;;;2.35;;
7645;SDS011;3864;48.180;14.178;2023-11-21T14:40:32;5.63;;;2.88;;
7645;SDS011;3864;48.180;14.178;2023-11-21T14:43:01;3.72;;;2.47;;
7645;SDS011;3864;48.180;14.178;2023-11-21T14:45:32;4.40;;;2.60;;
7645;SDS011;3864;48.180;14.178;2023-11-21T14:47:59;4.93;;;2.60;;
7645;SDS011;3864;48.180;14.178;2023-11-21T14:50:33;5.30;;;2.70;;
7645;SDS011;3864;48.180;14.178;2023-11-21T14:53:42;4.72;;;2.42;;
7645;SDS011;3864;48.180;14.178;2023-11-21T14:56:18;4.13;;;2.45;;
7645;SDS011;3864;48.180;14.178;2023-11-21T14:58:51;4.28;;;2.28;;
7645;SDS011;3864;48.180;14.178;2023-11-21T15:01:19;5.40;;;2.50;;
7645;SDS011;3864;48.180;14.178;2023-11-21T15:03:59;4.57;;;2.60;;
7645;SDS011;3864;48.180;14.178;2023-11-21T15:06:26;4.07;;;2.35;;
7645;SDS011;3864;48.180;14.178;2023-11-21T15:08:55;4.10;;;2.42;;
7645;SDS011;3864;48.180;14.178;2023-11-21T15:14:12;3.67;;;2.55;;
7645;SDS011;3864;48.180;14.178;2023-11-21T15:16:47;4.15;;;2.38;;
7645;SDS011;3864;48.180;14.178;2023-11-21T15:19:18;4.63;;;2.55;;
7645;SDS011;3864;48.180;14.178;2023-11-21T15:21:50;5.13;;;2.65;;
7645;SDS011;3864;48.180;14.178;2023-11-21T15:24:18;3.53;;;2.30;;
7645;SDS011;3864;48.180;14.178;2023-11-21T15:26:44;4.53;;;2.50;;
7645;SDS011;3864;48.180;14.178;2023-11-21T15:29:11;4.78;;;2.92;;
7645;SDS011;3864;48.180;14.178;2023-11-21T15:31:40;5.43;;;2.95;;
7645;SDS011;3864;48.180;14.178;2023-11-21T15:34:12;4.65;;;3.05;;
7645;SDS011;3864;48.180;14.178;2023-11-21T15:36:40;4.38;;;2.92;;
7645;SDS011;3864;48.180;14.178;2023-11-21T15:39:07;4.75;;;2.90;;
7645;SDS011;3864;48.180;14.178;2023-11-21T15:41:35;4.20;;;2.78;;
7645;SDS011;3864;48.180;14.178;2023-11-21T15:44:04;4.35;;;2.97;;
7645;SDS011;3864;48.180;14.178;2023-11-21T15:46:35;5.47;;;3.50;;
7645;SDS011;3864;48.180;14.178;2023-11-21T15:49:04;4.68;;;3.10;;
7645;SDS011;3864;48.180;14.178;2023-11-21T15:51:39;6.85;;;3.60;;
7645;SDS011;3864;48.180;14.178;2023-11-21T15:54:10;6.40;;;3.65;;
7645;SDS011;3864;48.180;14.178;2023-11-21T15:56:38;5.78;;;3.65;;
7645;SDS011;3864;48.180;14.178;2023-11-21T15:59:05;4.72;;;3.05;;
7645;SDS011;3864;48.180;14.178;2023-11-21T16:01:32;5.05;;;3.05;;
7645;SDS011;3864;48.180;14.178;2023-11-21T16:03:59;5.15;;;3.58;;
7645;SDS011;3864;48.180;14.178;2023-11-21T16:06:28;5.85;;;3.55;;
7645;SDS011;3864;48.180;14.178;2023-11-21T16:08:57;6.15;;;3.58;;
7645;SDS011;3864;48.180;14.178;2023-11-21T16:11:26;5.22;;;3.33;;
7645;SDS011;3864;48.180;14.178;2023-11-21T16:13:55;6.13;;;3.58;;